Time;durP1;ratioP1;P1;durP2;ratioP2;P2;SDS_P1;SDS_P2;PMS_P1;PMS_P2;Temp;Humidity;BMP_temperature;BMP_pressure;BME280_temperature;BME280_humidity;BME280_pressure;Samples;Min_cycle;Max_cycle;Signal;HPM_P1;HPM_P2
2023/05/22 00:03:47;;;;;;;;;;;;;;;18.22;100.00;101430.59;10543408;28;19942;-67
2023/05/22 00:08:49;;;;;;;;;;;;;;;18.60;100.00;101418.72;10568928;28;20416;-67
2023/05/22 00:13:52;;;;;;;;;;;;;;;18.45;100.00;101407.53;10585716;28;20376;-67
2023/05/22 00:18:54;;;;;;;;;;;;;;;18.20;100.00;101403.38;10566160;28;19928;-67
2023/05/22 00:23:56;;;;;;;;;;;;;;;18.23;100.00;101410.25;10540705;28;19931;-67
2023/05/22 00:28:58;;;;;;;;;;;;;;;18.31;100.00;101397.22;10522572;28;19924;-67
2023/05/22 00:34:01;;;;;;;;;;;;;;;18.12;100.00;101401.34;10542733;28;20391;-67
2023/05/22 00:39:03;;;;;;;;;;;;;;;18.04;100.00;101394.94;10540926;28;19923;-67
2023/05/22 00:44:06;;;;;;;;;;;;;;;18.21;100.00;101389.16;10579818;28;20336;-67
2023/05/22 00:49:09;;;;;;;;;;;;;;;17.91;100.00;101384.50;10566659;28;19974;-67
2023/05/22 00:54:11;;;;;;;;;;;;;;;17.91;100.00;101395.94;10547345;22;19924;-68
2023/05/22 00:59:13;;;;;;;;;;;;;;;17.84;100.00;101394.72;10523770;28;19931;-68
2023/05/22 01:04:17;;;;;;;;;;;;;;;17.89;100.00;101389.09;10522502;28;19932;-69
2023/05/22 01:09:19;;;;;;;;;;;;;;;18.03;100.00;101386.16;10541256;28;20337;-68
2023/05/22 01:14:24;;;;;;;;;;;;;;;18.04;100.00;101381.72;10541515;28;19931;-68
2023/05/22 01:19:40;;;;;;;;;;;;;;;17.78;100.00;101374.00;10539961;28;19931;-69
2023/05/22 01:24:50;;;;;;;;;;;;;;;17.94;100.00;101368.38;10523475;28;20007;-68
2023/05/22 01:29:56;;;;;;;;;;;;;;;17.76;100.00;101360.88;10537932;28;20433;-69
2023/05/22 01:34:58;;;;;;;;;;;;;;;17.75;100.00;101364.50;10540928;28;19930;-68
2023/05/22 01:40:00;;;;;;;;;;;;;;;17.60;100.00;101368.31;10521510;28;19931;-69
2023/05/22 01:45:03;;;;;;;;;;;;;;;17.55;100.00;101363.41;10521872;28;19924;-69
2023/05/22 01:50:05;;;;;;;;;;;;;;;17.56;100.00;101365.09;10522112;28;19928;-69
2023/05/22 01:55:08;;;;;;;;;;;;;;;17.57;100.00;101368.59;10521809;28;20362;-69
2023/05/22 02:00:14;;;;;;;;;;;;;;;17.44;100.00;101368.69;10539476;28;19930;-69
2023/05/22 02:05:17;;;;;;;;;;;;;;;17.38;100.00;101362.09;10540412;28;19930;-69
2023/05/22 02:10:19;;;;;;;;;;;;;;;17.15;100.00;101363.00;10521786;28;20298;-69
2023/05/22 02:15:22;;;;;;;;;;;;;;;17.34;100.00;101351.84;10521364;28;19924;-69
2023/05/22 02:20:24;;;;;;;;;;;;;;;17.20;100.00;101348.44;10539267;28;19975;-69
2023/05/22 02:25:26;;;;;;;;;;;;;;;17.17;100.00;101345.19;10523143;28;19924;-69
2023/05/22 02:30:28;;;;;;;;;;;;;;;17.14;100.00;101340.13;10547357;28;20371;-69
2023/05/22 02:35:31;;;;;;;;;;;;;;;17.09;100.00;101333.38;10548104;28;19930;-69
2023/05/22 02:40:33;;;;;;;;;;;;;;;16.77;100.00;101327.88;10546436;28;19924;-69
2023/05/22 02:45:36;;;;;;;;;;;;;;;16.83;100.00;101334.50;10511732;28;19928;-69
2023/05/22 02:50:38;;;;;;;;;;;;;;;16.78;100.00;101324.28;10547102;28;20397;-69
2023/05/22 02:55:40;;;;;;;;;;;;;;;16.69;100.00;101325.81;10546905;28;20007;-69
2023/05/22 03:00:43;;;;;;;;;;;;;;;16.65;100.00;101323.50;10545813;28;20469;-69
2023/05/22 03:05:45;;;;;;;;;;;;;;;16.57;100.00;101323.25;10546430;28;19924;-69
2023/05/22 03:10:48;;;;;;;;;;;;;;;16.39;100.00;101326.28;10528131;28;20011;-69
2023/05/22 03:15:50;;;;;;;;;;;;;;;16.40;100.00;101330.59;10546622;28;19924;-69
2023/05/22 03:20:52;;;;;;;;;;;;;;;16.39;100.00;101326.28;10546417;28;19924;-69
2023/05/22 03:25:55;;;;;;;;;;;;;;;16.24;100.00;101324.75;10544668;28;19924;-69
2023/05/22 03:30:58;;;;;;;;;;;;;;;16.14;100.00;101312.22;10545305;28;20401;-69
2023/05/22 03:36:00;;;;;;;;;;;;;;;16.37;100.00;101314.97;10545372;28;19924;-69
2023/05/22 03:41:02;;;;;;;;;;;;;;;16.33;100.00;101313.53;10544305;28;19969;-69
2023/05/22 03:46:04;;;;;;;;;;;;;;;16.01;100.00;101326.44;10545437;28;19924;-69
2023/05/22 03:51:08;;;;;;;;;;;;;;;16.16;100.00;101314.75;10544589;28;19924;-69
2023/05/22 03:56:10;;;;;;;;;;;;;;;16.03;100.00;101319.25;10543387;28;19924;-69
2023/05/22 04:01:12;;;;;;;;;;;;;;;16.25;100.00;101307.97;10544036;28;19924;-69
2023/05/22 04:06:14;;;;;;;;;;;;;;;16.00;100.00;101304.44;10526785;28;20102;-69
2023/05/22 04:11:17;;;;;;;;;;;;;;;16.08;100.00;101314.47;10524939;28;19924;-69
2023/05/22 04:16:19;;;;;;;;;;;;;;;15.96;100.00;101314.41;10543323;28;19951;-69
2023/05/22 04:21:22;;;;;;;;;;;;;;;15.85;100.00;101318.75;10543007;28;19924;-69
2023/05/22 04:26:24;;;;;;;;;;;;;;;15.92;100.00;101314.72;10542476;28;19924;-69
2023/05/22 04:31:27;;;;;;;;;;;;;;;16.06;100.00;101308.47;10543761;28;19924;-69
2023/05/22 04:36:29;;;;;;;;;;;;;;;16.01;100.00;101322.00;10542697;28;19935;-69
2023/05/22 04:41:33;;;;;;;;;;;;;;;16.05;100.00;101320.81;10543198;28;19925;-69
2023/05/22 04:46:35;;;;;;;;;;;;;;;16.15;100.00;101321.00;10525043;28;19924;-69
2023/05/22 04:51:37;;;;;;;;;;;;;;;16.25;100.00;101322.00;10538397;28;20267;-69
2023/05/22 04:56:39;;;;;;;;;;;;;;;16.31;100.00;101332.13;10541828;28;20010;-69
2023/05/22 05:01:44;;;;;;;;;;;;;;;16.14;100.00;101324.59;10541661;28;20405;-69
2023/05/22 05:06:46;;;;;;;;;;;;;;;16.29;100.00;101343.75;10541284;28;19935;-69
2023/05/22 05:11:49;;;;;;;;;;;;;;;16.43;100.00;101335.66;10542035;28;19932;-69
2023/05/22 05:16:51;;;;;;;;;;;;;;;16.57;100.00;101339.09;10523289;28;19971;-69
2023/05/22 05:21:54;;;;;;;;;;;;;;;16.70;100.00;101329.28;10539684;28;19967;-69
2023/05/22 05:26:56;;;;;;;;;;;;;;;16.68;100.00;101333.84;10523708;28;19934;-69
2023/05/22 05:31:58;;;;;;;;;;;;;;;16.62;100.00;101324.56;10541298;28;19931;-69
2023/05/22 05:37:01;;;;;;;;;;;;;;;16.79;100.00;101325.13;10539346;28;19924;-69
2023/05/22 05:42:03;;;;;;;;;;;;;;;16.88;100.00;101337.69;10539010;28;19924;-68
2023/05/22 05:47:06;;;;;;;;;;;;;;;17.06;100.00;101348.66;10522159;28;19927;-69
2023/05/22 05:52:08;;;;;;;;;;;;;;;16.63;100.00;101358.00;10540530;28;19931;-69
2023/05/22 05:57:10;;;;;;;;;;;;;;;16.64;100.00;101377.31;10520587;28;19946;-69
2023/05/22 06:02:12;;;;;;;;;;;;;;;16.34;100.00;101376.00;10505255;28;19923;-69
2023/05/22 06:07:15;;;;;;;;;;;;;;;16.50;100.00;101383.63;10537669;28;19963;-69
2023/05/22 06:12:17;;;;;;;;;;;;;;;16.43;100.00;101392.97;10536643;28;19931;-69
2023/05/22 06:17:20;;;;;;;;;;;;;;;16.65;100.00;101377.22;10538268;28;20299;-69
2023/05/22 06:22:25;;;;;;;;;;;;;;;16.57;100.00;101390.16;10539837;28;19930;-69
2023/05/22 06:27:28;;;;;;;;;;;;;;;16.63;100.00;101391.53;10521652;28;19924;-69
2023/05/22 06:32:30;;;;;;;;;;;;;;;16.57;100.00;101398.09;10519195;28;19924;-69
2023/05/22 06:37:34;;;;;;;;;;;;;;;16.44;100.00;101406.09;10536964;28;20282;-69
2023/05/22 06:42:36;;;;;;;;;;;;;;;16.67;100.00;101390.31;10519821;28;19943;-69
2023/05/22 06:47:39;;;;;;;;;;;;;;;16.88;100.00;101403.81;10535863;28;19924;-69
2023/05/22 06:52:41;;;;;;;;;;;;;;;17.45;100.00;101399.50;10519366;28;20031;-69
2023/05/22 06:57:43;;;;;;;;;;;;;;;17.37;100.00;101396.59;10537178;28;19924;-69
2023/05/22 07:02:45;;;;;;;;;;;;;;;18.07;100.00;101408.81;10534926;28;20398;-69
2023/05/22 07:07:47;;;;;;;;;;;;;;;18.37;100.00;101399.34;10518170;28;20333;-70
2023/05/22 07:12:50;;;;;;;;;;;;;;;18.75;100.00;101395.41;10506136;28;19932;-69
2023/05/22 07:17:53;;;;;;;;;;;;;;;19.09;100.00;101379.34;10510347;28;19932;-67
2023/05/22 07:22:57;;;;;;;;;;;;;;;19.48;100.00;101390.19;10508156;28;19996;-67
2023/05/22 07:28:00;;;;;;;;;;;;;;;19.39;100.00;101383.84;10541267;28;19930;-67
2023/05/22 07:33:03;;;;;;;;;;;;;;;20.08;100.00;101386.81;10526716;28;20299;-67
2023/05/22 07:38:06;;;;;;;;;;;;;;;20.50;100.00;101391.94;10544516;28;19974;-68
2023/05/22 07:43:08;;;;;;;;;;;;;;;20.79;99.53;101389.31;10543774;28;19924;-68
2023/05/22 07:48:10;;;;;;;;;;;;;;;21.26;96.56;101383.22;10524866;28;20268;-68
2023/05/22 07:53:13;;;;;;;;;;;;;;;21.29;97.52;101391.78;10543900;28;19930;-68
2023/05/22 07:58:15;;;;;;;;;;;;;;;21.74;93.74;101394.75;10526101;28;19938;-68
2023/05/22 08:03:18;;;;;;;;;;;;;;;21.98;92.91;101396.91;10542896;28;20120;-68
2023/05/22 08:08:22;;;;;;;;;;;;;;;21.86;92.56;101391.75;10544459;28;19928;-68
2023/05/22 08:13:24;;;;;;;;;;;;;;;22.62;86.74;101401.25;10525513;28;20282;-68
2023/05/22 08:18:27;;;;;;;;;;;;;;;22.73;83.99;101402.03;10541006;28;19928;-68
2023/05/22 08:23:30;;;;;;;;;;;;;;;23.06;85.91;101388.94;10522242;28;20332;-68
2023/05/22 08:28:32;;;;;;;;;;;;;;;23.34;82.04;101382.50;10524206;28;19943;-68
2023/05/22 08:33:35;;;;;;;;;;;;;;;24.03;81.58;101385.19;10542496;28;20383;-68
2023/05/22 08:38:37;;;;;;;;;;;;;;;24.16;78.06;101382.06;10542104;28;19924;-68
2023/05/22 08:43:40;;;;;;;;;;;;;;;23.79;78.86;101383.25;10542454;28;19924;-68
2023/05/22 08:48:43;;;;;;;;;;;;;;;24.14;79.33;101378.72;10523978;28;19947;-67
2023/05/22 08:53:45;;;;;;;;;;;;;;;24.43;75.78;101377.44;10542078;28;20031;-68
2023/05/22 08:58:48;;;;;;;;;;;;;;;25.25;72.88;101369.41;10523942;28;20275;-68
2023/05/22 09:03:50;;;;;;;;;;;;;;;25.46;72.25;101370.72;10542166;28;19924;-65
2023/05/22 09:08:52;;;;;;;;;;;;;;;25.08;73.55;101373.09;10541455;28;19924;-65
2023/05/22 09:14:07;;;;;;;;;;;;;;;25.32;68.67;101370.41;10539507;28;20371;-68
2023/05/22 09:19:10;;;;;;;;;;;;;;;26.06;69.85;101378.19;10542000;28;19931;-68
2023/05/22 09:24:12;;;;;;;;;;;;;;;26.27;65.46;101374.03;10522042;28;20114;-68
2023/05/22 09:29:14;;;;;;;;;;;;;;;25.72;68.26;101375.81;10541273;28;19924;-68
2023/05/22 09:34:17;;;;;;;;;;;;;;;26.10;69.60;101379.50;10540385;28;19930;-68
2023/05/22 09:39:19;;;;;;;;;;;;;;;25.22;70.38;101367.88;10520507;28;20303;-68
2023/05/22 09:44:23;;;;;;;;;;;;;;;26.43;67.84;101365.88;10521327;28;19930;-68
2023/05/22 09:49:26;;;;;;;;;;;;;;;25.59;68.81;101371.00;10519385;28;19928;-68
2023/05/22 09:54:30;;;;;;;;;;;;;;;26.29;69.20;101367.50;10520417;28;20430;-67
2023/05/22 09:59:33;;;;;;;;;;;;;;;27.73;65.41;101359.44;10519971;28;19924;-67
2023/05/22 10:04:35;;;;;;;;;;;;;;;26.76;64.47;101354.91;10509567;28;19930;-67
2023/05/22 10:09:39;;;;;;;;;;;;;;;25.74;65.87;101355.03;10522296;28;19924;-67
2023/05/22 10:14:41;;;;;;;;;;;;;;;27.00;66.07;101353.84;10520957;28;20390;-67
2023/05/22 10:19:44;;;;;;;;;;;;;;;27.94;61.64;101347.94;10522121;28;19924;-68
2023/05/22 10:24:48;;;;;;;;;;;;;;;27.68;61.01;101348.41;10539340;28;20382;-68
2023/05/22 10:29:52;;;;;;;;;;;;;;;27.45;61.94;101336.94;10538056;28;19986;-67
2023/05/22 10:35:00;;;;;;;;;;;;;;;28.51;61.46;101338.16;10521737;28;19931;-67
2023/05/22 10:40:06;;;;;;;;;;;;;;;29.35;58.67;101336.50;10525017;28;19924;-67
2023/05/22 10:45:09;;;;;;;;;;;;;;;28.76;59.04;101336.94;10525561;28;19924;-67
2023/05/22 10:50:11;;;;;;;;;;;;;;;28.68;59.37;101337.88;10546236;28;19924;-67
2023/05/22 10:55:13;;;;;;;;;;;;;;;26.22;62.56;101338.84;10545945;28;19924;-67
2023/05/22 11:00:18;;;;;;;;;;;;;;;27.92;60.61;101332.97;10528819;28;19938;-68
2023/05/22 11:05:20;;;;;;;;;;;;;;;29.74;55.90;101328.78;10527825;28;19930;-67
2023/05/22 11:10:26;;;;;;;;;;;;;;;28.57;56.68;101327.66;10547125;28;19955;-67
2023/05/22 11:15:31;;;;;;;;;;;;;;;27.24;59.83;101328.56;10528230;28;19946;-67
2023/05/22 11:20:35;;;;;;;;;;;;;;;27.83;59.56;101323.34;10545548;28;19924;-67
2023/05/22 11:25:39;;;;;;;;;;;;;;;30.24;56.36;101328.53;10544728;28;20305;-67
2023/05/22 11:30:41;;;;;;;;;;;;;;;30.53;53.20;101317.38;10545556;28;20382;-67
2023/05/22 11:35:44;;;;;;;;;;;;;;;28.41;58.24;101316.13;10544912;28;19977;-67
2023/05/22 11:40:48;;;;;;;;;;;;;;;28.93;55.09;101305.94;10527096;28;19974;-67
2023/05/22 11:45:50;;;;;;;;;;;;;;;30.27;53.79;101312.75;10510314;28;20375;-66
2023/05/22 11:50:52;;;;;;;;;;;;;;;27.89;58.40;101312.66;10544680;28;19946;-66
2023/05/22 11:55:54;;;;;;;;;;;;;;;28.53;57.22;101303.78;10523435;28;19930;-66
2023/05/22 12:00:58;;;;;;;;;;;;;;;27.57;60.17;101305.84;10544787;28;19928;-67
2023/05/22 12:06:00;;;;;;;;;;;;;;;29.63;55.96;101303.22;10544268;28;19931;-66
2023/05/22 12:11:03;;;;;;;;;;;;;;;29.09;55.47;101312.91;10525567;28;19928;-66
2023/05/22 12:16:18;;;;;;;;;;;;;;;28.70;57.88;101304.34;10526705;28;19932;-66
2023/05/22 12:21:20;;;;;;;;;;;;;;;28.70;55.90;101298.97;10543950;28;19927;-66
2023/05/22 12:26:23;;;;;;;;;;;;;;;30.13;52.87;101303.81;10542611;28;20374;-66
2023/05/22 12:31:25;;;;;;;;;;;;;;;28.34;56.51;101302.59;10542272;28;20271;-66
2023/05/22 12:36:34;;;;;;;;;;;;;;;27.95;57.73;101298.47;10541985;28;20393;-66
2023/05/22 12:41:37;;;;;;;;;;;;;;;28.51;55.93;101292.38;10524647;28;19928;-66
2023/05/22 12:46:39;;;;;;;;;;;;;;;27.78;58.88;101289.75;10524412;28;19924;-66
2023/05/22 12:51:41;;;;;;;;;;;;;;;27.95;60.14;101292.25;10541903;28;19924;-66
2023/05/22 12:56:44;;;;;;;;;;;;;;;27.21;58.89;101293.16;10541983;28;20371;-66
2023/05/22 13:01:46;;;;;;;;;;;;;;;28.38;58.71;101283.31;10523634;28;19928;-66
2023/05/22 13:06:48;;;;;;;;;;;;;;;27.81;57.14;101275.13;10541506;28;20287;-66
2023/05/22 13:11:51;;;;;;;;;;;;;;;27.84;57.32;101280.13;10546228;22;19924;-65
2023/05/22 13:16:53;;;;;;;;;;;;;;;27.50;60.05;101278.88;10541201;28;19924;-65
2023/05/22 13:21:55;;;;;;;;;;;;;;;26.44;62.20;101280.81;10540693;28;19934;-65
2023/05/22 13:26:57;;;;;;;;;;;;;;;28.27;60.37;101277.44;10523364;28;19928;-65
2023/05/22 13:32:00;;;;;;;;;;;;;;;29.71;56.06;101273.38;10540585;28;19924;-65
2023/05/22 13:37:02;;;;;;;;;;;;;;;27.95;58.67;101274.25;10540601;28;19930;-65
2023/05/22 13:42:05;;;;;;;;;;;;;;;27.05;60.88;101272.69;10538698;28;20297;-65
2023/05/22 13:47:07;;;;;;;;;;;;;;;27.38;60.05;101265.09;10540761;28;19959;-65
2023/05/22 13:52:09;;;;;;;;;;;;;;;26.67;62.10;101268.22;10539229;28;20401;-65
2023/05/22 13:57:12;;;;;;;;;;;;;;;27.86;60.92;101267.31;10540454;28;19974;-65
2023/05/22 14:02:14;;;;;;;;;;;;;;;28.07;58.34;101268.34;10522055;28;19932;-65
2023/05/22 14:07:16;;;;;;;;;;;;;;;28.28;56.85;101273.72;10537326;28;20383;-64
2023/05/22 14:12:19;;;;;;;;;;;;;;;27.34;56.32;101266.50;10535564;28;19924;-64
2023/05/22 14:17:22;;;;;;;;;;;;;;;28.16;55.91;101278.81;10539868;28;19924;-64
2023/05/22 14:22:24;;;;;;;;;;;;;;;27.91;57.00;101278.31;10524234;28;19931;-65
2023/05/22 14:27:27;;;;;;;;;;;;;;;28.34;57.67;101282.88;10547669;28;19924;-65
2023/05/22 14:32:29;;;;;;;;;;;;;;;28.07;56.64;101277.25;10547958;28;19924;-65
2023/05/22 14:37:31;;;;;;;;;;;;;;;25.85;61.34;101311.72;10547545;28;19924;-65
2023/05/22 14:42:34;;;;;;;;;;;;;;;24.79;62.87;101323.59;10547230;28;19924;-65
2023/05/22 14:47:36;;;;;;;;;;;;;;;23.81;66.39;101327.75;10546882;28;19930;-64
2023/05/22 14:52:38;;;;;;;;;;;;;;;23.51;68.34;101339.84;10546361;28;20010;-64
2023/05/22 14:57:41;;;;;;;;;;;;;;;23.53;71.05;101341.34;10546527;28;20014;-64
2023/05/22 15:02:43;;;;;;;;;;;;;;;23.32;73.18;101343.59;10547105;28;19931;-64
2023/05/22 15:07:45;;;;;;;;;;;;;;;22.97;81.96;101353.34;10546782;28;19931;-64
2023/05/22 15:12:50;;;;;;;;;;;;;;;22.79;94.63;101378.22;10571714;28;19924;-64
2023/05/22 15:17:52;;;;;;;;;;;;;;;22.89;100.00;101383.47;10565974;28;19930;-64
2023/05/22 15:22:54;;;;;;;;;;;;;;;22.99;98.48;101378.88;10574900;28;19924;-64
2023/05/22 15:27:58;;;;;;;;;;;;;;;22.90;99.58;101373.66;10588617;28;19950;-64
2023/05/22 15:33:02;;;;;;;;;;;;;;;22.72;100.00;101371.84;10587771;28;19931;-64
2023/05/22 15:38:04;;;;;;;;;;;;;;;22.66;100.00;101367.09;10550189;28;20389;-64
2023/05/22 15:43:07;;;;;;;;;;;;;;;22.70;100.00;101373.00;10576241;28;19928;-64
2023/05/22 15:48:09;;;;;;;;;;;;;;;23.23;100.00;101358.72;10564819;28;19939;-64
2023/05/22 15:53:11;;;;;;;;;;;;;;;24.92;85.55;101358.72;10587016;28;20374;-64
2023/05/22 15:58:14;;;;;;;;;;;;;;;25.18;77.46;101360.34;10576177;28;19924;-64
2023/05/22 16:03:16;;;;;;;;;;;;;;;25.33;78.46;101357.84;10587039;28;20010;-64
2023/05/22 16:08:18;;;;;;;;;;;;;;;25.19;74.28;101364.72;10586123;28;20405;-65
2023/05/22 16:13:21;;;;;;;;;;;;;;;24.70;73.69;101346.88;10571109;28;19930;-65
2023/05/22 16:18:23;;;;;;;;;;;;;;;24.51;74.87;101356.03;10569579;28;19930;-65
2023/05/22 16:23:25;;;;;;;;;;;;;;;25.35;76.35;101355.81;10538922;28;19924;-65
2023/05/22 16:28:27;;;;;;;;;;;;;;;25.73;71.81;101364.91;10580777;28;19924;-65
2023/05/22 16:33:29;;;;;;;;;;;;;;;24.76;70.25;101367.59;10579350;28;19924;-65
2023/05/22 16:38:32;;;;;;;;;;;;;;;24.89;69.98;101367.09;10575222;28;19924;-65
2023/05/22 16:43:35;;;;;;;;;;;;;;;24.56;71.61;101366.25;10578409;28;19924;-65
2023/05/22 16:48:37;;;;;;;;;;;;;;;24.89;67.26;101369.78;10585327;28;19923;-65
2023/05/22 16:53:40;;;;;;;;;;;;;;;24.97;68.30;101379.66;10576646;28;19924;-65
2023/05/22 16:58:42;;;;;;;;;;;;;;;24.06;66.05;101382.19;10552913;28;19924;-65
2023/05/22 17:03:45;;;;;;;;;;;;;;;23.45;64.27;101393.91;10552263;28;19946;-65
2023/05/22 17:08:49;;;;;;;;;;;;;;;22.65;62.44;101402.81;10574642;28;20435;-65
2023/05/22 17:13:52;;;;;;;;;;;;;;;22.57;62.98;101406.22;10583539;28;20397;-65
2023/05/22 17:18:54;;;;;;;;;;;;;;;22.79;63.23;101418.25;10568008;28;19963;-65
2023/05/22 17:23:56;;;;;;;;;;;;;;;22.46;62.07;101411.81;10583964;28;19924;-65
2023/05/22 17:28:59;;;;;;;;;;;;;;;22.53;62.09;101420.03;10569463;28;19934;-65
2023/05/22 17:34:03;;;;;;;;;;;;;;;22.24;61.70;101419.19;10582169;28;20271;-65
2023/05/22 17:39:05;;;;;;;;;;;;;;;22.08;62.58;101425.16;10583434;28;19931;-65
2023/05/22 17:44:07;;;;;;;;;;;;;;;21.81;63.73;101426.00;10563741;28;20286;-65
2023/05/22 17:49:10;;;;;;;;;;;;;;;21.44;64.43;101432.13;10580319;28;20487;-65
2023/05/22 17:54:13;;;;;;;;;;;;;;;21.44;63.11;101433.94;10551313;28;19931;-65
2023/05/22 17:59:15;;;;;;;;;;;;;;;21.15;64.67;101441.00;10578903;28;19973;-64
2023/05/22 18:04:18;;;;;;;;;;;;;;;21.47;63.62;101455.00;10582453;28;19924;-65
2023/05/22 18:09:20;;;;;;;;;;;;;;;20.78;64.61;101465.66;10571480;28;19924;-65
2023/05/22 18:14:22;;;;;;;;;;;;;;;21.00;65.34;101453.06;10577617;28;19930;-65
2023/05/22 18:19:24;;;;;;;;;;;;;;;21.05;65.83;101461.47;10581675;28;20286;-65
2023/05/22 18:24:27;;;;;;;;;;;;;;;20.38;66.63;101465.69;10570491;28;19924;-65
2023/05/22 18:29:29;;;;;;;;;;;;;;;20.44;66.25;101474.94;10582087;28;19930;-65
2023/05/22 18:34:31;;;;;;;;;;;;;;;20.23;67.37;101473.19;10581328;28;19930;-65
2023/05/22 18:39:36;;;;;;;;;;;;;;;20.12;67.35;101482.09;10538201;28;19931;-65
2023/05/22 18:44:38;;;;;;;;;;;;;;;19.93;69.14;101479.38;10581940;28;19934;-65
2023/05/22 18:49:40;;;;;;;;;;;;;;;19.91;69.24;101484.81;10572312;28;19930;-65
2023/05/22 18:54:43;;;;;;;;;;;;;;;19.77;69.62;101487.81;10580726;28;20010;-64
2023/05/22 18:59:45;;;;;;;;;;;;;;;19.70;70.76;101491.94;10569068;28;19923;-65
2023/05/22 19:04:48;;;;;;;;;;;;;;;19.56;70.89;101493.94;10581428;28;19933;-65
2023/05/22 19:09:51;;;;;;;;;;;;;;;19.57;72.88;101508.91;10567659;28;19974;-65
2023/05/22 19:14:53;;;;;;;;;;;;;;;19.29;74.26;101518.34;10589170;28;19924;-65
2023/05/22 19:19:55;;;;;;;;;;;;;;;19.05;73.95;101529.19;10588163;28;20290;-65
2023/05/22 19:24:57;;;;;;;;;;;;;;;18.75;74.86;101535.97;10580341;28;20363;-65
2023/05/22 19:30:00;;;;;;;;;;;;;;;18.88;75.05;101526.09;10537590;28;19924;-65
2023/05/22 19:35:02;;;;;;;;;;;;;;;18.86;76.12;101535.13;10561508;28;20362;-65
2023/05/22 19:40:05;;;;;;;;;;;;;;;18.82;77.23;101539.81;10544529;28;19930;-65
2023/05/22 19:45:08;;;;;;;;;;;;;;;18.64;79.33;101539.47;10550062;28;19924;-65
2023/05/22 19:50:10;;;;;;;;;;;;;;;18.21;86.60;101553.47;10570460;28;19931;-65
2023/05/22 19:55:12;;;;;;;;;;;;;;;18.27;83.27;101554.78;10559866;28;20457;-65
2023/05/22 20:00:15;;;;;;;;;;;;;;;18.14;86.10;101557.53;10587278;28;19930;-65
2023/05/22 20:05:17;;;;;;;;;;;;;;;18.06;87.90;101571.41;10557304;28;20369;-65
2023/05/22 20:10:19;;;;;;;;;;;;;;;17.99;88.75;101570.19;10586611;28;19930;-65
2023/05/22 20:15:23;;;;;;;;;;;;;;;17.75;90.87;101580.81;10553153;28;19923;-65
2023/05/22 20:20:25;;;;;;;;;;;;;;;17.83;90.60;101589.84;10586383;28;19924;-65
2023/05/22 20:25:28;;;;;;;;;;;;;;;17.79;90.91;101601.66;10585805;28;19927;-65
2023/05/22 20:30:30;;;;;;;;;;;;;;;17.60;91.65;101606.63;10567115;28;19931;-65
2023/05/22 20:35:33;;;;;;;;;;;;;;;17.45;93.26;101600.69;10535488;28;19930;-65
2023/05/22 20:40:35;;;;;;;;;;;;;;;17.67;92.09;101602.56;10568261;28;19931;-65
2023/05/22 20:45:37;;;;;;;;;;;;;;;17.53;94.31;101616.00;10585398;28;19924;-65
2023/05/22 20:50:41;;;;;;;;;;;;;;;17.38;94.51;101626.75;10584633;28;19963;-65
2023/05/22 20:55:43;;;;;;;;;;;;;;;17.46;95.31;101640.25;10576393;28;19924;-65
2023/05/22 21:00:48;;;;;;;;;;;;;;;17.28;96.35;101646.88;10541750;28;19924;-65
2023/05/22 21:05:50;;;;;;;;;;;;;;;16.92;100.00;101656.50;10579700;28;19946;-65
2023/05/22 21:10:53;;;;;;;;;;;;;;;17.25;99.19;101663.00;10542904;28;19939;-64
2023/05/22 21:15:55;;;;;;;;;;;;;;;17.08;100.00;101662.41;10537223;28;19946;-65
2023/05/22 21:20:57;;;;;;;;;;;;;;;16.97;100.00;101666.78;10540968;28;20387;-65
2023/05/22 21:26:01;;;;;;;;;;;;;;;17.08;100.00;101669.50;10540309;28;20295;-65
2023/05/22 21:31:03;;;;;;;;;;;;;;;16.74;100.00;101671.81;10541090;28;19924;-65
2023/05/22 21:36:05;;;;;;;;;;;;;;;16.70;100.00;101676.50;10540803;28;19924;-65
2023/05/22 21:41:07;;;;;;;;;;;;;;;16.84;100.00;101680.84;10540383;28;19924;-65
2023/05/22 21:46:10;;;;;;;;;;;;;;;16.96;100.00;101676.50;10539763;28;19924;-65
2023/05/22 21:51:12;;;;;;;;;;;;;;;16.86;100.00;101684.25;10540846;28;19966;-65
2023/05/22 21:56:14;;;;;;;;;;;;;;;16.74;100.00;101676.28;10525347;28;19930;-65
2023/05/22 22:01:17;;;;;;;;;;;;;;;16.72;100.00;101679.88;10537956;28;19924;-65
2023/05/22 22:06:19;;;;;;;;;;;;;;;16.70;100.00;101676.50;10521964;28;20312;-64
2023/05/22 22:11:21;;;;;;;;;;;;;;;16.51;100.00;101686.66;10512599;28;20339;-64
2023/05/22 22:16:23;;;;;;;;;;;;;;;16.27;99.35;101689.16;10496946;28;20284;-65
2023/05/22 22:21:26;;;;;;;;;;;;;;;16.14;100.00;101705.84;10496814;28;20425;-65
2023/05/22 22:26:29;;;;;;;;;;;;;;;16.07;100.00;101712.47;10497689;28;19975;-65
2023/05/22 22:31:32;;;;;;;;;;;;;;;15.71;100.00;101710.41;10497730;28;20444;-65
2023/05/22 22:36:34;;;;;;;;;;;;;;;15.98;100.00;101700.72;10496776;28;20436;-65
2023/05/22 22:41:36;;;;;;;;;;;;;;;16.00;100.00;101702.41;10497940;28;19932;-65
2023/05/22 22:46:39;;;;;;;;;;;;;;;16.03;100.00;101708.34;10505324;28;19935;-65
2023/05/22 22:51:41;;;;;;;;;;;;;;;16.19;100.00;101712.59;10504171;28;20442;-65
2023/05/22 22:56:45;;;;;;;;;;;;;;;16.36;100.00;101701.75;10505090;28;19931;-65
2023/05/22 23:01:47;;;;;;;;;;;;;;;16.13;100.00;101706.78;10505541;28;19924;-65
2023/05/22 23:06:49;;;;;;;;;;;;;;;16.08;100.00;101703.59;10505370;28;19964;-65
2023/05/22 23:11:52;;;;;;;;;;;;;;;15.94;100.00;101706.31;10535006;28;19924;-65
2023/05/22 23:16:54;;;;;;;;;;;;;;;16.28;100.00;101710.19;10542095;28;20394;-65
2023/05/22 23:21:56;;;;;;;;;;;;;;;15.93;100.00;101716.00;10546561;28;19931;-65
2023/05/22 23:26:58;;;;;;;;;;;;;;;16.00;100.00;101710.34;10545882;28;20023;-65
2023/05/22 23:32:01;;;;;;;;;;;;;;;15.86;100.00;101719.16;10541025;28;19930;-65
2023/05/22 23:37:03;;;;;;;;;;;;;;;15.88;100.00;101709.34;10544642;28;19985;-65
2023/05/22 23:42:09;;;;;;;;;;;;;;;15.89;100.00;101711.88;10531544;28;20290;-65
2023/05/22 23:47:12;;;;;;;;;;;;;;;16.21;99.60;101713.38;10545886;28;20003;-65
2023/05/22 23:52:14;;;;;;;;;;;;;;;15.91;100.00;101715.28;10545436;28;19924;-65
2023/05/22 23:57:17;;;;;;;;;;;;;;;15.78;100.00;101712.59;10543509;28;19930;-65
